createdAt,value
2022-11-13T00:00:18.998Z,4.73
2022-11-13T00:03:23.591Z,4.23
2022-11-13T00:06:28.453Z,4.20
2022-11-13T00:09:32.597Z,4.53
2022-11-13T00:12:36.862Z,5.17
2022-11-13T00:15:40.700Z,4.93
2022-11-13T00:18:45.523Z,5.13
2022-11-13T00:21:49.409Z,4.30
2022-11-13T00:24:53.321Z,4.67
2022-11-13T00:27:57.129Z,4.70
2022-11-13T00:31:02.446Z,5.00
2022-11-13T00:34:25.859Z,4.67
2022-11-13T00:37:30.611Z,4.47
2022-11-13T00:40:34.724Z,5.30
2022-11-13T00:43:39.118Z,4.83
2022-11-13T00:46:42.925Z,4.70
2022-11-13T00:49:46.807Z,4.73
2022-11-13T00:52:50.589Z,4.40
2022-11-13T00:55:54.586Z,4.73
2022-11-13T00:58:58.601Z,5.30
2022-11-13T01:02:03.184Z,5.00
2022-11-13T01:05:07.795Z,4.80
2022-11-13T01:08:13.600Z,4.80
2022-11-13T01:11:20.411Z,4.43
2022-11-13T01:14:24.522Z,4.67
2022-11-13T01:17:29.058Z,4.80
2022-11-13T01:20:33.633Z,4.53
2022-11-13T01:23:38.031Z,4.70
2022-11-13T01:26:42.218Z,4.10
2022-11-13T01:29:46.557Z,4.20
2022-11-13T01:32:50.509Z,4.87
2022-11-13T01:36:03.804Z,4.70
2022-11-13T01:39:10.727Z,4.40
2022-11-13T01:42:14.651Z,4.73
2022-11-13T01:45:56.375Z,4.70
2022-11-13T01:49:03.421Z,4.67
2022-11-13T01:52:11.049Z,4.07
2022-11-13T01:55:18.810Z,4.00
2022-11-13T01:58:22.819Z,4.50
2022-11-13T02:01:27.156Z,4.30
2022-11-13T02:04:33.000Z,4.47
2022-11-13T02:07:37.288Z,4.30
2022-11-13T02:10:41.463Z,4.20
2022-11-13T02:13:45.974Z,5.10
2022-11-13T02:16:54.305Z,4.20
2022-11-13T02:20:05.858Z,4.20
2022-11-13T02:23:37.377Z,4.80
2022-11-13T02:26:42.176Z,4.00
2022-11-13T02:29:46.017Z,4.30
2022-11-13T02:32:52.074Z,4.37
2022-11-13T02:35:56.337Z,4.37
2022-11-13T02:39:03.642Z,5.07
2022-11-13T02:42:07.613Z,4.50
2022-11-13T02:45:11.989Z,4.00
2022-11-13T02:48:15.828Z,4.03
2022-11-13T02:51:19.688Z,4.20
2022-11-13T02:54:23.752Z,4.40
2022-11-13T02:57:27.638Z,4.17
2022-11-13T03:00:31.638Z,4.57
2022-11-13T03:07:00.113Z,4.37
2022-11-13T03:10:04.816Z,4.00
2022-11-13T03:13:08.738Z,4.43
2022-11-13T03:16:14.915Z,4.00
2022-11-13T03:19:18.691Z,4.53
2022-11-13T03:22:22.920Z,3.90
2022-11-13T03:25:26.726Z,3.67
2022-11-13T03:28:30.888Z,3.73
2022-11-13T03:31:34.875Z,4.03
2022-11-13T03:34:39.216Z,3.93
2022-11-13T03:37:43.531Z,4.23
2022-11-13T03:40:47.639Z,4.60
2022-11-13T03:43:51.753Z,3.63
2022-11-13T03:46:55.819Z,3.47
2022-11-13T03:49:59.595Z,4.50
2022-11-13T03:53:03.611Z,3.73
2022-11-13T03:56:07.589Z,3.70
2022-11-13T03:59:11.436Z,4.27
2022-11-13T04:02:15.192Z,3.50
2022-11-13T04:05:22.705Z,4.30
2022-11-13T04:08:27.346Z,3.40
2022-11-13T04:11:31.366Z,4.07
2022-11-13T04:14:35.062Z,4.20
2022-11-13T04:17:39.154Z,4.10
2022-11-13T04:20:43.441Z,3.50
2022-11-13T04:23:47.665Z,4.30
2022-11-13T04:26:51.755Z,3.97
2022-11-13T04:29:55.506Z,4.27
2022-11-13T04:32:59.614Z,3.77
2022-11-13T04:36:03.702Z,3.97
2022-11-13T04:39:08.198Z,4.63
2022-11-13T04:42:31.232Z,3.70
2022-11-13T04:45:36.198Z,4.07
2022-11-13T04:48:39.989Z,3.47
2022-11-13T04:51:43.885Z,3.87
2022-11-13T04:54:47.899Z,3.73
2022-11-13T04:57:55.388Z,3.90
2022-11-13T05:00:59.510Z,3.70
2022-11-13T05:04:04.062Z,3.67
2022-11-13T05:07:07.999Z,3.53
2022-11-13T05:10:12.311Z,3.50
2022-11-13T05:13:16.239Z,3.20
2022-11-13T05:16:20.161Z,3.83
2022-11-13T05:19:24.423Z,3.53
2022-11-13T05:22:28.537Z,3.40
2022-11-13T05:25:32.618Z,3.53
2022-11-13T05:28:37.045Z,3.33
2022-11-13T05:31:40.871Z,3.73
2022-11-13T05:34:44.597Z,3.50
2022-11-13T05:37:48.418Z,4.00
2022-11-13T05:40:52.306Z,3.47
2022-11-13T05:43:59.547Z,3.27
2022-11-13T05:47:03.925Z,3.50
2022-11-13T05:50:07.989Z,3.60
2022-11-13T05:53:12.447Z,3.43
2022-11-13T05:56:19.718Z,3.13
2022-11-13T05:59:23.797Z,3.27
2022-11-13T06:02:28.185Z,3.07
2022-11-13T06:05:35.096Z,3.10
2022-11-13T06:08:39.367Z,3.63
2022-11-13T06:11:44.101Z,3.23
2022-11-13T06:14:47.928Z,3.37
2022-11-13T06:17:52.117Z,3.77
2022-11-13T06:20:56.322Z,3.80
2022-11-13T06:24:01.511Z,3.10
2022-11-13T06:27:05.647Z,3.00
2022-11-13T06:30:10.396Z,3.43
2022-11-13T06:33:14.686Z,3.63
2022-11-13T06:36:26.424Z,4.13
2022-11-13T06:39:30.296Z,3.40
2022-11-13T06:42:34.295Z,2.63
2022-11-13T06:45:38.145Z,3.53
2022-11-13T06:48:42.637Z,2.90
2022-11-13T06:51:46.553Z,3.17
2022-11-13T06:54:50.777Z,3.00
2022-11-13T06:57:55.016Z,2.60
2022-11-13T07:01:05.562Z,3.00
2022-11-13T07:04:13.369Z,3.17
2022-11-13T07:07:17.473Z,3.70
2022-11-13T07:10:21.230Z,3.20
2022-11-13T07:13:26.664Z,3.03
2022-11-13T07:16:44.091Z,3.10
2022-11-13T07:19:54.829Z,3.00
2022-11-13T07:23:00.670Z,3.20
2022-11-13T07:26:04.841Z,3.10
2022-11-13T07:29:08.892Z,3.57
2022-11-13T07:32:12.622Z,3.20
2022-11-13T07:35:16.866Z,3.77
2022-11-13T07:38:20.949Z,3.33
2022-11-13T07:41:25.140Z,3.20
2022-11-13T07:44:53.101Z,3.00
2022-11-13T07:47:57.956Z,2.93
2022-11-13T07:51:02.801Z,2.43
2022-11-13T07:54:06.855Z,2.87
2022-11-13T07:57:10.736Z,3.23
2022-11-13T08:00:16.831Z,2.60
2022-11-13T08:03:20.889Z,3.03
2022-11-13T08:06:27.558Z,2.70
2022-11-13T08:09:31.742Z,3.00
2022-11-13T08:12:35.746Z,2.87
2022-11-13T08:15:39.752Z,2.83
2022-11-13T08:18:43.992Z,3.17
2022-11-13T08:21:48.022Z,3.53
2022-11-13T08:24:53.753Z,3.60
2022-11-13T08:27:57.997Z,3.43
2022-11-13T08:31:02.754Z,3.00
2022-11-13T08:34:06.841Z,2.67
2022-11-13T08:37:11.351Z,2.70
2022-11-13T08:40:15.461Z,2.83
2022-11-13T08:43:19.762Z,3.13
2022-11-13T08:46:23.723Z,3.10
2022-11-13T08:49:27.594Z,2.90
2022-11-13T08:52:31.747Z,3.00
2022-11-13T08:55:37.036Z,2.80
2022-11-13T08:58:40.711Z,3.50
2022-11-13T09:01:44.478Z,2.70
2022-11-13T09:04:48.396Z,3.57
2022-11-13T09:07:56.413Z,2.90
2022-11-13T09:11:05.298Z,3.17
2022-11-13T09:14:09.464Z,3.10
2022-11-13T09:17:13.396Z,3.47
2022-11-13T09:20:21.609Z,2.70
2022-11-13T09:23:28.705Z,3.27
2022-11-13T09:26:35.055Z,2.60
2022-11-13T09:29:38.894Z,2.97
2022-11-13T09:32:42.934Z,2.97
2022-11-13T09:35:47.007Z,2.90
2022-11-13T09:38:50.851Z,3.10
2022-11-13T09:42:04.065Z,2.77
2022-11-13T09:45:13.715Z,3.13
2022-11-13T09:48:23.085Z,3.07
2022-11-13T09:51:33.342Z,3.00
2022-11-13T09:54:38.579Z,2.93
2022-11-13T09:58:00.418Z,3.13
2022-11-13T10:01:04.617Z,2.87
2022-11-13T10:04:14.461Z,3.00
2022-11-13T10:07:47.439Z,2.90
2022-11-13T10:10:56.122Z,3.27
2022-11-13T10:14:07.917Z,3.03
2022-11-13T10:17:56.982Z,3.03
2022-11-13T10:21:32.357Z,2.77
2022-11-13T10:24:44.590Z,2.90
2022-11-13T10:28:01.229Z,3.23
2022-11-13T10:31:12.853Z,3.00
2022-11-13T10:34:17.994Z,2.90
2022-11-13T10:37:41.067Z,2.67
2022-11-13T10:40:45.252Z,3.57
2022-11-13T10:43:54.328Z,2.90
2022-11-13T10:47:31.244Z,3.03
2022-11-13T10:50:53.646Z,2.70
2022-11-13T10:53:59.709Z,2.63
2022-11-13T10:57:06.330Z,3.20
2022-11-13T11:00:21.525Z,2.80
2022-11-13T11:03:27.149Z,3.23
2022-11-13T11:07:04.604Z,2.90
2022-11-13T11:09:57.608Z,2.60
2022-11-13T11:13:25.381Z,3.00
2022-11-13T11:16:29.444Z,2.90
2022-11-13T11:19:37.580Z,3.00
2022-11-13T11:22:43.757Z,2.70
2022-11-13T11:25:57.196Z,3.20
2022-11-13T11:29:19.526Z,3.03
2022-11-13T11:32:32.369Z,3.20
2022-11-13T11:35:45.333Z,2.63
2022-11-13T11:38:52.231Z,3.10
2022-11-13T11:42:04.590Z,2.97
2022-11-13T11:45:30.837Z,2.83
2022-11-13T11:48:35.160Z,2.77
2022-11-13T11:52:23.337Z,2.63
2022-11-13T11:56:10.076Z,3.37
2022-11-13T11:59:42.314Z,2.80
2022-11-13T12:03:11.005Z,3.17
2022-11-13T12:06:48.407Z,2.63
2022-11-13T12:10:25.413Z,2.83
2022-11-13T12:13:32.481Z,3.03
2022-11-13T12:16:56.428Z,2.80
2022-11-13T12:20:03.237Z,3.10
2022-11-13T12:23:30.249Z,2.60
2022-11-13T12:26:46.375Z,2.73
2022-11-13T12:30:05.359Z,2.93
2022-11-13T12:33:27.445Z,3.20
2022-11-13T12:36:32.109Z,3.37
2022-11-13T12:39:44.785Z,3.03
2022-11-13T12:43:00.152Z,2.73
2022-11-13T12:46:08.858Z,3.03
2022-11-13T12:49:27.513Z,2.90
2022-11-13T12:52:31.552Z,2.90
2022-11-13T12:55:38.818Z,2.60
2022-11-13T12:59:15.524Z,2.90
2022-11-13T13:02:40.726Z,2.70
2022-11-13T13:05:56.721Z,3.03
2022-11-13T13:09:18.567Z,2.70
2022-11-13T13:12:41.740Z,2.83
2022-11-13T13:15:55.234Z,2.87
2022-11-13T13:19:32.912Z,2.87
2022-11-13T13:22:37.091Z,2.57
2022-11-13T13:25:41.406Z,2.77
2022-11-13T13:28:50.833Z,2.77
2022-11-13T13:32:19.403Z,2.20
2022-11-13T13:35:43.760Z,2.87
2022-11-13T13:38:54.349Z,2.60
2022-11-13T13:42:13.489Z,3.07
2022-11-13T13:45:39.047Z,2.63
2022-11-13T13:48:45.720Z,2.80
2022-11-13T13:51:52.573Z,3.90
2022-11-13T13:54:59.764Z,7.00
2022-11-13T13:58:12.340Z,14.13
2022-11-13T14:01:27.896Z,19.57
2022-11-13T14:04:45.929Z,24.67
2022-11-13T14:07:50.321Z,30.47
2022-11-13T14:10:54.271Z,38.67
2022-11-13T14:14:17.174Z,44.13
2022-11-13T14:17:24.429Z,53.10
2022-11-13T14:20:28.425Z,52.03
2022-11-13T14:23:40.041Z,47.20
2022-11-13T14:26:44.451Z,42.40
2022-11-13T14:29:55.275Z,37.47
2022-11-13T14:33:02.307Z,36.87
2022-11-13T14:36:07.077Z,31.33
2022-11-13T14:39:22.159Z,32.07
2022-11-13T14:42:29.999Z,29.27
2022-11-13T14:45:34.386Z,30.23
2022-11-13T14:48:38.125Z,34.17
2022-11-13T14:51:42.260Z,44.63
2022-11-13T14:55:13.697Z,60.20
2022-11-13T14:58:14.693Z,43.57
2022-11-13T15:01:24.315Z,50.03
2022-11-13T15:04:28.525Z,60.43
2022-11-13T15:07:34.360Z,55.53
2022-11-13T15:10:38.489Z,94.43
2022-11-13T15:13:43.231Z,79.30
2022-11-13T15:16:48.735Z,74.13
2022-11-13T15:19:54.179Z,78.43
2022-11-13T15:22:59.694Z,64.40
2022-11-13T15:26:03.807Z,57.80
2022-11-13T15:29:08.276Z,55.53
2022-11-13T15:32:14.192Z,49.20
2022-11-13T15:35:18.790Z,44.67
2022-11-13T15:38:22.774Z,45.23
2022-11-13T15:41:28.164Z,43.87
2022-11-13T15:44:31.991Z,43.00
2022-11-13T15:47:37.124Z,38.33
2022-11-13T15:50:41.293Z,36.43
2022-11-13T15:53:48.178Z,33.60
2022-11-13T15:56:52.042Z,34.43
2022-11-13T15:59:56.062Z,32.77
2022-11-13T16:03:00.415Z,29.87
2022-11-13T16:06:05.102Z,26.17
2022-11-13T16:09:13.009Z,26.60
2022-11-13T16:12:17.454Z,27.70
2022-11-13T16:15:21.706Z,27.23
2022-11-13T16:18:28.906Z,26.13
2022-11-13T16:21:33.035Z,23.50
2022-11-13T16:24:36.998Z,24.83
2022-11-13T16:27:41.376Z,21.03
2022-11-13T16:30:47.168Z,22.17
2022-11-13T16:33:51.094Z,22.37
2022-11-13T16:36:55.022Z,18.83
2022-11-13T16:39:59.086Z,18.87
2022-11-13T16:43:03.413Z,20.50
2022-11-13T16:46:25.902Z,17.80
2022-11-13T16:49:29.861Z,17.47
2022-11-13T16:52:34.189Z,15.90
2022-11-13T16:55:38.242Z,16.60
2022-11-13T16:58:42.967Z,16.80
2022-11-13T17:01:46.942Z,16.90
2022-11-13T17:04:50.859Z,15.60
2022-11-13T17:07:57.978Z,15.00
2022-11-13T17:11:01.895Z,13.27
2022-11-13T17:14:06.088Z,14.67
2022-11-13T17:17:13.341Z,14.47
2022-11-13T17:20:19.425Z,13.67
2022-11-13T17:23:23.728Z,12.30
2022-11-13T17:26:29.377Z,12.93
2022-11-13T17:29:33.705Z,11.97
2022-11-13T17:32:37.436Z,11.47
2022-11-13T17:35:41.654Z,11.47
2022-11-13T17:38:45.578Z,11.47
2022-11-13T17:41:50.564Z,12.00
2022-11-13T17:44:54.493Z,11.13
2022-11-13T17:47:58.434Z,11.07
2022-11-13T17:51:05.093Z,10.87
2022-11-13T17:54:08.885Z,10.87
2022-11-13T17:57:13.058Z,12.00
2022-11-13T18:00:18.061Z,10.83
2022-11-13T18:03:22.058Z,13.73
2022-11-13T18:06:26.131Z,11.27
2022-11-13T18:09:30.162Z,13.13
2022-11-13T18:12:34.018Z,14.67
2022-11-13T18:15:39.040Z,20.27
2022-11-13T18:18:43.070Z,23.97
2022-11-13T18:21:47.120Z,25.80
2022-11-13T18:24:51.332Z,42.70
2022-11-13T18:27:55.759Z,47.57
2022-11-13T18:30:59.696Z,55.73
2022-11-13T18:34:05.738Z,64.40
2022-11-13T18:37:10.073Z,87.47
2022-11-13T18:40:14.042Z,72.50
2022-11-13T18:43:17.860Z,89.43
2022-11-13T18:46:22.432Z,98.60
2022-11-13T18:49:26.658Z,98.80
2022-11-13T18:52:32.618Z,108.50
2022-11-13T18:55:37.057Z,115.47
2022-11-13T18:58:43.079Z,123.20
2022-11-13T19:01:47.340Z,132.43
2022-11-13T19:04:51.290Z,135.60
2022-11-13T19:07:57.892Z,149.63
2022-11-13T19:11:23.737Z,157.73
2022-11-13T19:14:27.847Z,176.67
2022-11-13T19:17:31.694Z,164.27
2022-11-13T19:20:38.334Z,170.40
2022-11-13T19:23:42.736Z,175.23
2022-11-13T19:26:47.142Z,209.67
2022-11-13T19:29:51.279Z,339.73
2022-11-13T19:32:55.269Z,437.40
2022-11-13T19:35:59.386Z,365.10
2022-11-13T19:39:04.709Z,332.53
2022-11-13T19:42:08.482Z,376.20
2022-11-13T19:45:12.450Z,748.97
2022-11-13T19:48:18.890Z,990.63
2022-11-13T19:51:25.088Z,837.77
2022-11-13T19:54:29.564Z,777.27
2022-11-13T19:57:33.737Z,727.83
2022-11-13T20:00:37.582Z,655.53
2022-11-13T20:03:41.462Z,607.60
2022-11-13T20:06:45.743Z,565.90
2022-11-13T20:09:50.198Z,504.30
2022-11-13T20:12:54.339Z,468.13
2022-11-13T20:15:58.201Z,395.23
2022-11-13T20:19:02.340Z,358.33
2022-11-13T20:22:06.608Z,306.33
2022-11-13T20:25:10.776Z,259.73
2022-11-13T20:28:14.950Z,224.30
2022-11-13T20:31:23.845Z,193.57
2022-11-13T20:34:27.642Z,177.50
2022-11-13T20:37:31.494Z,154.07
2022-11-13T20:40:35.500Z,141.40
2022-11-13T20:43:39.830Z,126.60
2022-11-13T20:46:43.837Z,114.43
2022-11-13T20:49:47.767Z,104.73
2022-11-13T20:52:51.707Z,94.07
2022-11-13T20:55:55.698Z,86.00
2022-11-13T20:58:59.583Z,78.67
2022-11-13T21:02:03.811Z,76.33
2022-11-13T21:05:07.674Z,68.23
2022-11-13T21:08:11.968Z,64.93
2022-11-13T21:11:29.382Z,59.93
2022-11-13T21:14:33.140Z,61.43
2022-11-13T21:17:36.937Z,61.03
2022-11-13T21:20:41.048Z,59.77
2022-11-13T21:23:46.438Z,58.63
2022-11-13T21:26:50.549Z,57.70
2022-11-13T21:29:54.891Z,55.57
2022-11-13T21:33:02.402Z,53.80
2022-11-13T21:36:17.609Z,51.10
2022-11-13T21:39:22.701Z,50.53
2022-11-13T21:42:26.773Z,47.40
2022-11-13T21:45:33.464Z,47.67
2022-11-13T21:48:37.634Z,46.90
2022-11-13T21:51:42.871Z,45.67
2022-11-13T21:54:47.108Z,45.23
2022-11-13T21:57:50.863Z,43.53
2022-11-13T22:00:54.694Z,42.73
2022-11-13T22:03:58.728Z,42.90
2022-11-13T22:07:03.212Z,41.33
2022-11-13T22:10:08.657Z,38.30
2022-11-13T22:13:12.941Z,38.03
2022-11-13T22:16:16.870Z,38.17
2022-11-13T22:19:25.620Z,34.20
2022-11-13T22:22:31.188Z,35.07
2022-11-13T22:25:35.039Z,36.13
2022-11-13T22:28:41.306Z,34.17
2022-11-13T22:31:45.402Z,34.30
2022-11-13T22:34:49.534Z,30.87
2022-11-13T22:37:53.456Z,31.70
2022-11-13T22:41:03.154Z,29.83
2022-11-13T22:44:10.438Z,31.57
2022-11-13T22:47:14.214Z,29.73
2022-11-13T22:50:18.194Z,29.17
2022-11-13T22:53:22.279Z,28.03
2022-11-13T22:56:28.515Z,26.73
2022-11-13T22:59:32.327Z,26.60
2022-11-13T23:02:36.145Z,26.60
2022-11-13T23:05:39.733Z,24.43
2022-11-13T23:08:43.942Z,25.53
2022-11-13T23:11:48.194Z,23.60
2022-11-13T23:14:51.852Z,22.70
2022-11-13T23:17:55.848Z,22.87
2022-11-13T23:20:59.910Z,22.43
2022-11-13T23:24:04.213Z,21.50
2022-11-13T23:27:08.458Z,21.07
2022-11-13T23:30:12.578Z,20.40
2022-11-13T23:33:16.942Z,20.00
2022-11-13T23:36:21.001Z,20.93
2022-11-13T23:39:25.155Z,19.47
2022-11-13T23:42:46.073Z,16.43
2022-11-13T23:45:53.353Z,18.63
2022-11-13T23:48:57.334Z,17.80
2022-11-13T23:52:01.355Z,17.87
2022-11-13T23:55:05.648Z,17.77
2022-11-13T23:58:14.910Z,17.83
